sensor_id;sensor_type;location;lat;lon;timestamp;pressure;altitude;pressure_sealevel;temperature;humidity
28630;BME280;15817;42.130;24.762;2022-12-22T00:00:30;100374.19;;;1.11;100.00
28630;BME280;15817;42.130;24.762;2022-12-22T00:06:55;100370.59;;;1.09;100.00
28630;BME280;15817;42.130;24.762;2022-12-22T00:10:05;100377.75;;;1.13;100.00
28630;BME280;15817;42.130;24.762;2022-12-22T00:12:57;100383.97;;;1.15;100.00
28630;BME280;15817;42.130;24.762;2022-12-22T00:15:52;100379.16;;;1.05;100.00
28630;BME280;15817;42.130;24.762;2022-12-22T00:19:12;100374.94;;;1.08;100.00
28630;BME280;15817;42.130;24.762;2022-12-22T00:22:21;100375.91;;;1.11;100.00
28630;BME280;15817;42.130;24.762;2022-12-22T00:25:16;100364.41;;;1.07;100.00
28630;BME280;15817;42.130;24.762;2022-12-22T00:28:21;100369.66;;;1.07;100.00
28630;BME280;15817;42.130;24.762;2022-12-22T00:31:22;100359.63;;;0.97;100.00
28630;BME280;15817;42.130;24.762;2022-12-22T00:34:28;100353.50;;;0.96;100.00
28630;BME280;15817;42.130;24.762;2022-12-22T00:37:29;100358.88;;;0.99;100.00
28630;BME280;15817;42.130;24.762;2022-12-22T00:40:17;100354.47;;;0.98;100.00
28630;BME280;15817;42.130;24.762;2022-12-22T00:43:04;100364.19;;;1.01;100.00
28630;BME280;15817;42.130;24.762;2022-12-22T00:46:14;100343.69;;;0.91;100.00
28630;BME280;15817;42.130;24.762;2022-12-22T00:49:17;100345.59;;;0.95;100.00
28630;BME280;15817;42.130;24.762;2022-12-22T00:52:05;100346.47;;;0.95;100.00
28630;BME280;15817;42.130;24.762;2022-12-22T00:54:52;100328.69;;;0.87;100.00
28630;BME280;15817;42.130;24.762;2022-12-22T00:57:40;100329.59;;;0.87;100.00
28630;BME280;15817;42.130;24.762;2022-12-22T01:00:28;100329.78;;;0.92;100.00
28630;BME280;15817;42.130;24.762;2022-12-22T01:03:16;100330.59;;;0.91;100.00
28630;BME280;15817;42.130;24.762;2022-12-22T01:06:10;100328.81;;;0.90;100.00
28630;BME280;15817;42.130;24.762;2022-12-22T01:09:04;100339.44;;;0.94;100.00
28630;BME280;15817;42.130;24.762;2022-12-22T01:11:49;100327.09;;;0.90;100.00
28630;BME280;15817;42.130;24.762;2022-12-22T01:14:36;100333.16;;;0.89;100.00
28630;BME280;15817;42.130;24.762;2022-12-22T01:17:29;100323.59;;;0.90;100.00
28630;BME280;15817;42.130;24.762;2022-12-22T01:20:17;100324.41;;;0.89;100.00
28630;BME280;15817;42.130;24.762;2022-12-22T01:23:15;100321.47;;;0.81;100.00
28630;BME280;15817;42.130;24.762;2022-12-22T01:25:59;100316.06;;;0.77;100.00
28630;BME280;15817;42.130;24.762;2022-12-22T01:28:46;100319.56;;;0.77;100.00
28630;BME280;15817;42.130;24.762;2022-12-22T01:31:31;100322.19;;;0.77;100.00
28630;BME280;15817;42.130;24.762;2022-12-22T01:34:30;100311.38;;;0.68;100.00
28630;BME280;15817;42.130;24.762;2022-12-22T01:37:20;100319.22;;;0.68;100.00
28630;BME280;15817;42.130;24.762;2022-12-22T01:40:24;100297.03;;;0.60;100.00
28630;BME280;15817;42.130;24.762;2022-12-22T01:43:32;100302.41;;;0.63;100.00
28630;BME280;15817;42.130;24.762;2022-12-22T01:49:28;100286.22;;;0.51;100.00
28630;BME280;15817;42.130;24.762;2022-12-22T01:52:28;100293.16;;;0.50;100.00
28630;BME280;15817;42.130;24.762;2022-12-22T01:55:22;100303.56;;;0.49;100.00
28630;BME280;15817;42.130;24.762;2022-12-22T01:58:21;100278.59;;;0.34;100.00
28630;BME280;15817;42.130;24.762;2022-12-22T02:01:10;100297.00;;;0.38;100.00
28630;BME280;15817;42.130;24.762;2022-12-22T02:03:58;100286.53;;;0.38;100.00
28630;BME280;15817;42.130;24.762;2022-12-22T02:13:46;100300.88;;;0.47;100.00
28630;BME280;15817;42.130;24.762;2022-12-22T02:16:55;100280.63;;;0.42;100.00
28630;BME280;15817;42.130;24.762;2022-12-22T02:23:09;100272.91;;;0.45;100.00
28630;BME280;15817;42.130;24.762;2022-12-22T02:26:19;100279.25;;;0.51;100.00
28630;BME280;15817;42.130;24.762;2022-12-22T02:29:18;100272.06;;;0.46;100.00
28630;BME280;15817;42.130;24.762;2022-12-22T02:32:05;100274.56;;;0.43;100.00
28630;BME280;15817;42.130;24.762;2022-12-22T02:34:52;100275.59;;;0.46;100.00
28630;BME280;15817;42.130;24.762;2022-12-22T02:38:28;100264.78;;;0.39;100.00
28630;BME280;15817;42.130;24.762;2022-12-22T02:44:46;100273.78;;;0.45;100.00
28630;BME280;15817;42.130;24.762;2022-12-22T02:47:43;100279.25;;;0.51;100.00
28630;BME280;15817;42.130;24.762;2022-12-22T02:50:45;100262.44;;;0.45;100.00
28630;BME280;15817;42.130;24.762;2022-12-22T02:53:37;100272.16;;;0.49;100.00
28630;BME280;15817;42.130;24.762;2022-12-22T02:56:22;100264.22;;;0.46;100.00
28630;BME280;15817;42.130;24.762;2022-12-22T02:59:07;100267.00;;;0.50;100.00
28630;BME280;15817;42.130;24.762;2022-12-22T03:01:54;100271.34;;;0.50;100.00
28630;BME280;15817;42.130;24.762;2022-12-22T03:04:43;100275.81;;;0.52;100.00
28630;BME280;15817;42.130;24.762;2022-12-22T03:07:32;100267.00;;;0.50;100.00
28630;BME280;15817;42.130;24.762;2022-12-22T03:10:19;100266.03;;;0.48;100.00
28630;BME280;15817;42.130;24.762;2022-12-22T03:13:25;100262.38;;;0.43;100.00
28630;BME280;15817;42.130;24.762;2022-12-22T03:16:12;100272.06;;;0.46;100.00
28630;BME280;15817;42.130;24.762;2022-12-22T03:18:59;100267.47;;;0.40;100.00
28630;BME280;15817;42.130;24.762;2022-12-22T03:21:52;100264.63;;;0.34;100.00
28630;BME280;15817;42.130;24.762;2022-12-22T03:24:44;100268.16;;;0.36;100.00
28630;BME280;15817;42.130;24.762;2022-12-22T03:27:30;100270.59;;;0.31;100.00
28630;BME280;15817;42.130;24.762;2022-12-22T03:30:01;100266.44;;;0.36;100.00
28630;BME280;15817;42.130;24.762;2022-12-22T03:32:35;100268.16;;;0.36;100.00
28630;BME280;15817;42.130;24.762;2022-12-22T03:35:19;100256.50;;;0.28;100.00
28630;BME280;15817;42.130;24.762;2022-12-22T03:37:59;100255.75;;;0.30;100.00
28630;BME280;15817;42.130;24.762;2022-12-22T03:40:31;100264.34;;;0.28;100.00
28630;BME280;15817;42.130;24.762;2022-12-22T03:43:28;100267.94;;;0.30;100.00
28630;BME280;15817;42.130;24.762;2022-12-22T03:46:16;100262.50;;;0.25;100.00
28630;BME280;15817;42.130;24.762;2022-12-22T03:49:12;100265.38;;;0.31;100.00
28630;BME280;15817;42.130;24.762;2022-12-22T03:51:48;100262.03;;;0.35;100.00
28630;BME280;15817;42.130;24.762;2022-12-22T03:57:44;100273.66;;;0.42;100.00
28630;BME280;15817;42.130;24.762;2022-12-22T04:00:36;100255.88;;;0.33;100.00
28630;BME280;15817;42.130;24.762;2022-12-22T04:03:18;100249.69;;;0.31;100.00
28630;BME280;15817;42.130;24.762;2022-12-22T04:05:48;100251.41;;;0.31;100.00
28630;BME280;15817;42.130;24.762;2022-12-22T04:08:23;100254.19;;;0.35;100.00
28630;BME280;15817;42.130;24.762;2022-12-22T04:11:02;100255.91;;;0.35;100.00
28630;BME280;15817;42.130;24.762;2022-12-22T04:14:06;100256.81;;;0.35;100.00
28630;BME280;15817;42.130;24.762;2022-12-22T04:16:40;100242.47;;;0.26;100.00
28630;BME280;15817;42.130;24.762;2022-12-22T04:20:01;100249.47;;;0.27;100.00
28630;BME280;15817;42.130;24.762;2022-12-22T04:22:29;100249.25;;;0.21;100.00
28630;BME280;15817;42.130;24.762;2022-12-22T04:28:30;100247.31;;;0.17;100.00
28630;BME280;15817;42.130;24.762;2022-12-22T04:31:01;100250.00;;;0.18;100.00
28630;BME280;15817;42.130;24.762;2022-12-22T04:33:34;100251.72;;;0.18;100.00
28630;BME280;15817;42.130;24.762;2022-12-22T04:36:04;100269.50;;;0.26;100.00
28630;BME280;15817;42.130;24.762;2022-12-22T04:38:33;100264.94;;;0.21;100.00
28630;BME280;15817;42.130;24.762;2022-12-22T04:45:12;100275.31;;;0.19;100.00
28630;BME280;15817;42.130;24.762;2022-12-22T04:48:39;100249.56;;;0.08;100.00
28630;BME280;15817;42.130;24.762;2022-12-22T04:51:33;100247.84;;;0.08;100.00
28630;BME280;15817;42.130;24.762;2022-12-22T04:54:40;100246.94;;;0.08;100.00
28630;BME280;15817;42.130;24.762;2022-12-22T04:57:17;100247.00;;;0.09;100.00
28630;BME280;15817;42.130;24.762;2022-12-22T04:59:54;100248.75;;;0.09;100.00
28630;BME280;15817;42.130;24.762;2022-12-22T05:02:47;100246.94;;;0.08;100.00
28630;BME280;15817;42.130;24.762;2022-12-22T05:05:24;100256.66;;;0.10;100.00
28630;BME280;15817;42.130;24.762;2022-12-22T05:08:08;100248.59;;;0.06;100.00
28630;BME280;15817;42.130;24.762;2022-12-22T05:10:36;100261.91;;;0.12;100.00
28630;BME280;15817;42.130;24.762;2022-12-22T05:13:02;100249.56;;;0.08;100.00
28630;BME280;15817;42.130;24.762;2022-12-22T05:15:48;100245.81;;;0.22;100.00
28630;BME280;15817;42.130;24.762;2022-12-22T05:21:51;100246.69;;;0.22;100.00
28630;BME280;15817;42.130;24.762;2022-12-22T05:24:49;100243.59;;;0.12;100.00
28630;BME280;15817;42.130;24.762;2022-12-22T05:27:21;100261.88;;;0.10;100.00
28630;BME280;15817;42.130;24.762;2022-12-22T05:29:50;100253.91;;;0.07;100.00
28630;BME280;15817;42.130;24.762;2022-12-22T05:32:16;100253.75;;;0.04;100.00
28630;BME280;15817;42.130;24.762;2022-12-22T05:34:48;100266.28;;;0.11;100.00
28630;BME280;15817;42.130;24.762;2022-12-22T05:37:37;100248.59;;;0.06;100.00
28630;BME280;15817;42.130;24.762;2022-12-22T05:40:06;100262.63;;;0.08;100.00
28630;BME280;15817;42.130;24.762;2022-12-22T05:42:51;100263.38;;;0.05;100.00
28630;BME280;15817;42.130;24.762;2022-12-22T05:45:46;100267.03;;;0.09;100.00
28630;BME280;15817;42.130;24.762;2022-12-22T05:48:13;100255.47;;;0.04;100.00
28630;BME280;15817;42.130;24.762;2022-12-22T05:50:50;100263.69;;;0.13;100.00
28630;BME280;15817;42.130;24.762;2022-12-22T05:53:27;100244.25;;;0.06;100.00
28630;BME280;15817;42.130;24.762;2022-12-22T05:56:16;100254.88;;;0.09;100.00
28630;BME280;15817;42.130;24.762;2022-12-22T05:58:48;100261.34;;;0.19;100.00
28630;BME280;15817;42.130;24.762;2022-12-22T06:01:19;100254.03;;;0.10;100.00
28630;BME280;15817;42.130;24.762;2022-12-22T06:03:50;100252.19;;;0.08;100.00
28630;BME280;15817;42.130;24.762;2022-12-22T06:06:45;100263.91;;;0.17;100.00
28630;BME280;15817;42.130;24.762;2022-12-22T06:12:25;100264.81;;;0.18;100.00
28630;BME280;15817;42.130;24.762;2022-12-22T06:15:41;100259.25;;;0.10;100.00
28630;BME280;15817;42.130;24.762;2022-12-22T06:18:17;100256.75;;;0.13;100.00
28630;BME280;15817;42.130;24.762;2022-12-22T06:21:07;100267.41;;;0.18;100.00
28630;BME280;15817;42.130;24.762;2022-12-22T06:24:02;100271.75;;;0.17;100.00
28630;BME280;15817;42.130;24.762;2022-12-22T06:26:33;100270.94;;;0.18;100.00
28630;BME280;15817;42.130;24.762;2022-12-22T06:29:01;100263.09;;;0.18;100.00
28630;BME280;15817;42.130;24.762;2022-12-22T06:31:30;100258.47;;;0.13;100.00
28630;BME280;15817;42.130;24.762;2022-12-22T06:34:05;100263.78;;;0.14;100.00
28630;BME280;15817;42.130;24.762;2022-12-22T06:36:36;100264.81;;;0.18;100.00
28630;BME280;15817;42.130;24.762;2022-12-22T06:39:06;100272.88;;;0.24;100.00
28630;BME280;15817;42.130;24.762;2022-12-22T06:41:41;100281.75;;;0.27;100.00
28630;BME280;15817;42.130;24.762;2022-12-22T06:44:31;100273.75;;;0.23;100.00
28630;BME280;15817;42.130;24.762;2022-12-22T06:46:57;100275.50;;;0.24;100.00
28630;BME280;15817;42.130;24.762;2022-12-22T06:49:32;100270.34;;;0.25;100.00
28630;BME280;15817;42.130;24.762;2022-12-22T06:52:02;100278.25;;;0.27;100.00
28630;BME280;15817;42.130;24.762;2022-12-22T06:54:35;100278.13;;;0.24;100.00
28630;BME280;15817;42.130;24.762;2022-12-22T06:57:09;100278.84;;;0.20;100.00
28630;BME280;15817;42.130;24.762;2022-12-22T06:59:38;100275.41;;;0.21;100.00
28630;BME280;15817;42.130;24.762;2022-12-22T07:02:09;100290.44;;;0.26;100.00
28630;BME280;15817;42.130;24.762;2022-12-22T07:04:42;100267.66;;;0.24;100.00
28630;BME280;15817;42.130;24.762;2022-12-22T07:07:24;100279.28;;;0.30;100.00
28630;BME280;15817;42.130;24.762;2022-12-22T07:10:36;100273.09;;;0.28;100.00
28630;BME280;15817;42.130;24.762;2022-12-22T07:13:26;100267.09;;;0.31;100.00
28630;BME280;15817;42.130;24.762;2022-12-22T07:15:52;100270.84;;;0.38;100.00
28630;BME280;15817;42.130;24.762;2022-12-22T07:18:22;100270.91;;;0.39;100.00
28630;BME280;15817;42.130;24.762;2022-12-22T07:20:53;100267.25;;;0.35;100.00
28630;BME280;15817;42.130;24.762;2022-12-22T07:23:27;100275.44;;;0.43;100.00
28630;BME280;15817;42.130;24.762;2022-12-22T07:25:56;100272.00;;;0.44;100.00
28630;BME280;15817;42.130;24.762;2022-12-22T07:28:22;100269.47;;;0.46;100.00
28630;BME280;15817;42.130;24.762;2022-12-22T07:30:56;100268.72;;;0.50;100.00
28630;BME280;15817;42.130;24.762;2022-12-22T07:33:25;100280.38;;;0.58;100.00
28630;BME280;15817;42.130;24.762;2022-12-22T07:36:22;100274.16;;;0.54;100.00
28630;BME280;15817;42.130;24.762;2022-12-22T07:38:53;100272.44;;;0.55;100.00
28630;BME280;15817;42.130;24.762;2022-12-22T07:41:22;100267.31;;;0.58;100.00
28630;BME280;15817;42.130;24.762;2022-12-22T07:44:10;100277.28;;;0.66;100.00
28630;BME280;15817;42.130;24.762;2022-12-22T07:46:46;100271.84;;;0.62;100.00
28630;BME280;15817;42.130;24.762;2022-12-22T07:49:20;100274.81;;;0.71;100.00
28630;BME280;15817;42.130;24.762;2022-12-22T07:52:19;100273.22;;;0.75;100.00
28630;BME280;15817;42.130;24.762;2022-12-22T07:55:04;100283.09;;;0.82;100.00
28630;BME280;15817;42.130;24.762;2022-12-22T07:57:30;100270.19;;;0.86;100.00
28630;BME280;15817;42.130;24.762;2022-12-22T08:00:06;100281.91;;;0.96;100.00
28630;BME280;15817;42.130;24.762;2022-12-22T08:02:40;100259.72;;;0.86;100.00
28630;BME280;15817;42.130;24.762;2022-12-22T08:05:23;100271.44;;;0.96;100.00
28630;BME280;15817;42.130;24.762;2022-12-22T08:07:52;100263.44;;;0.91;100.00
28630;BME280;15817;42.130;24.762;2022-12-22T08:10:29;100263.34;;;0.90;100.00
28630;BME280;15817;42.130;24.762;2022-12-22T08:13:06;100252.13;;;0.92;100.00
28630;BME280;15817;42.130;24.762;2022-12-22T08:15:38;100257.38;;;0.94;100.00
28630;BME280;15817;42.130;24.762;2022-12-22T08:18:38;100266.31;;;0.99;100.00
28630;BME280;15817;42.130;24.762;2022-12-22T08:21:21;100263.91;;;1.03;100.00
28630;BME280;15817;42.130;24.762;2022-12-22T08:24:01;100260.47;;;1.06;100.00
28630;BME280;15817;42.130;24.762;2022-12-22T08:26:40;100259.91;;;1.13;100.00
28630;BME280;15817;42.130;24.762;2022-12-22T08:29:33;100258.16;;;1.14;100.00
28630;BME280;15817;42.130;24.762;2022-12-22T08:32:06;100257.44;;;1.18;100.00
28630;BME280;15817;42.130;24.762;2022-12-22T08:34:35;100258.38;;;1.20;100.00
28630;BME280;15817;42.130;24.762;2022-12-22T08:37:25;100247.97;;;1.21;100.00
28630;BME280;15817;42.130;24.762;2022-12-22T08:43:30;100240.28;;;1.26;100.00
28630;BME280;15817;42.130;24.762;2022-12-22T08:46:07;100237.66;;;1.26;100.00
28630;BME280;15817;42.130;24.762;2022-12-22T08:48:33;100228.16;;;1.29;100.00
28630;BME280;15817;42.130;24.762;2022-12-22T08:51:01;100242.63;;;1.42;100.00
28630;BME280;15817;42.130;24.762;2022-12-22T08:53:33;100232.00;;;1.37;100.00
28630;BME280;15817;42.130;24.762;2022-12-22T08:56:04;100241.16;;;1.50;100.00
28630;BME280;15817;42.130;24.762;2022-12-22T08:58:30;100222.81;;;1.50;100.00
28630;BME280;15817;42.130;24.762;2022-12-22T09:04:04;100212.88;;;1.65;100.00
28630;BME280;15817;42.130;24.762;2022-12-22T09:06:39;100213.03;;;1.70;100.00
28630;BME280;15817;42.130;24.762;2022-12-22T09:09:17;100224.81;;;1.81;100.00
28630;BME280;15817;42.130;24.762;2022-12-22T09:11:50;100208.22;;;1.82;100.00
28630;BME280;15817;42.130;24.762;2022-12-22T09:14:28;100216.34;;;1.90;100.00
28630;BME280;15817;42.130;24.762;2022-12-22T09:16:59;100199.72;;;1.89;100.00
28630;BME280;15817;42.130;24.762;2022-12-22T09:19:25;100200.91;;;1.99;100.00
28630;BME280;15817;42.130;24.762;2022-12-22T09:22:07;100185.28;;;2.02;100.00
28630;BME280;15817;42.130;24.762;2022-12-22T09:24:42;100193.63;;;2.15;100.00
28630;BME280;15817;42.130;24.762;2022-12-22T09:27:18;100189.56;;;2.25;100.00
28630;BME280;15817;42.130;24.762;2022-12-22T09:29:51;100184.31;;;2.25;100.00
28630;BME280;15817;42.130;24.762;2022-12-22T09:36:29;100193.84;;;2.50;100.00
28630;BME280;15817;42.130;24.762;2022-12-22T09:39:07;100175.47;;;2.50;100.00
28630;BME280;15817;42.130;24.762;2022-12-22T09:41:51;100174.81;;;2.57;100.00
28630;BME280;15817;42.130;24.762;2022-12-22T09:44:45;100178.66;;;2.68;100.00
28630;BME280;15817;42.130;24.762;2022-12-22T09:50:06;100174.63;;;2.79;100.00
28630;BME280;15817;42.130;24.762;2022-12-22T09:53:57;100180.91;;;2.84;100.00
28630;BME280;15817;42.130;24.762;2022-12-22T09:56:32;100167.88;;;2.87;100.00
28630;BME280;15817;42.130;24.762;2022-12-22T09:59:00;100148.41;;;2.81;99.25
28630;BME280;15817;42.130;24.762;2022-12-22T10:04:38;100157.72;;;3.00;98.72
28630;BME280;15817;42.130;24.762;2022-12-22T10:07:37;100142.50;;;2.88;99.78
28630;BME280;15817;42.130;24.762;2022-12-22T10:14:24;100125.25;;;2.98;99.43
28630;BME280;15817;42.130;24.762;2022-12-22T10:27:20;100114.66;;;3.26;98.67
28630;BME280;15817;42.130;24.762;2022-12-22T10:30:34;100106.75;;;3.26;94.83
28630;BME280;15817;42.130;24.762;2022-12-22T10:33:30;100119.38;;;3.39;92.99
28630;BME280;15817;42.130;24.762;2022-12-22T10:36:11;100109.66;;;3.37;91.91
28630;BME280;15817;42.130;24.762;2022-12-22T10:38:55;100093.28;;;3.45;90.95
28630;BME280;15817;42.130;24.762;2022-12-22T10:41:24;100099.47;;;3.49;93.27
28630;BME280;15817;42.130;24.762;2022-12-22T10:44:21;100095.16;;;3.51;95.06
28630;BME280;15817;42.130;24.762;2022-12-22T10:47:01;100092.56;;;3.52;94.99
28630;BME280;15817;42.130;24.762;2022-12-22T10:52:35;100089.22;;;3.59;95.37
28630;BME280;15817;42.130;24.762;2022-12-22T10:55:27;100088.56;;;3.67;93.10
28630;BME280;15817;42.130;24.762;2022-12-22T10:58:27;100068.47;;;3.70;90.68
28630;BME280;15817;42.130;24.762;2022-12-22T11:01:25;100064.09;;;3.71;91.55
28630;BME280;15817;42.130;24.762;2022-12-22T11:06:47;100052.94;;;3.79;89.78
28630;BME280;15817;42.130;24.762;2022-12-22T11:09:33;100042.50;;;3.84;89.43
28630;BME280;15817;42.130;24.762;2022-12-22T11:12:12;100060.41;;;3.98;88.59
28630;BME280;15817;42.130;24.762;2022-12-22T11:21:02;100041.81;;;3.92;93.45
28630;BME280;15817;42.130;24.762;2022-12-22T11:23:40;100017.13;;;3.86;93.57
28630;BME280;15817;42.130;24.762;2022-12-22T11:26:23;100012.81;;;3.89;93.60
28630;BME280;15817;42.130;24.762;2022-12-22T11:29:10;100026.16;;;3.97;93.40
28630;BME280;15817;42.130;24.762;2022-12-22T11:37:52;100007.88;;;4.05;93.93
28630;BME280;15817;42.130;24.762;2022-12-22T11:40:43;100006.22;;;4.08;95.74
28630;BME280;15817;42.130;24.762;2022-12-22T12:30:58;99987.75;;;4.47;95.08
28630;BME280;15817;42.130;24.762;2022-12-22T12:33:51;99977.09;;;4.41;95.96
28630;BME280;15817;42.130;24.762;2022-12-22T12:36:35;99982.34;;;4.41;97.25
28630;BME280;15817;42.130;24.762;2022-12-22T12:43:01;99980.78;;;4.49;96.34
28630;BME280;15817;42.130;24.762;2022-12-22T13:15:25;99983.50;;;4.54;96.95
28630;BME280;15817;42.130;24.762;2022-12-22T13:19:02;99972.00;;;4.49;96.79
28630;BME280;15817;42.130;24.762;2022-12-22T13:22:31;99971.09;;;4.48;96.48
28630;BME280;15817;42.130;24.762;2022-12-22T13:32:47;99981.63;;;4.48;96.66
28630;BME280;15817;42.130;24.762;2022-12-22T13:35:56;99991.34;;;4.52;96.97
28630;BME280;15817;42.130;24.762;2022-12-22T13:39:10;99980.78;;;4.49;97.40
28630;BME280;15817;42.130;24.762;2022-12-22T13:41:53;99979.03;;;4.50;97.81
28630;BME280;15817;42.130;24.762;2022-12-22T13:44:49;99979.00;;;4.48;97.62
28630;BME280;15817;42.130;24.762;2022-12-22T13:47:58;99990.53;;;4.55;97.54
28630;BME280;15817;42.130;24.762;2022-12-22T13:50:42;99979.03;;;4.51;97.44
28630;BME280;15817;42.130;24.762;2022-12-22T13:53:58;99979.31;;;4.65;96.85
28630;BME280;15817;42.130;24.762;2022-12-22T13:56:52;99989.84;;;4.65;96.48
28630;BME280;15817;42.130;24.762;2022-12-22T13:59:48;99981.88;;;4.60;96.74
28630;BME280;15817;42.130;24.762;2022-12-22T14:07:18;99954.41;;;4.48;97.78
28630;BME280;15817;42.130;24.762;2022-12-22T14:10:46;99970.31;;;4.54;97.35
28630;BME280;15817;42.130;24.762;2022-12-22T14:17:32;99971.34;;;4.60;97.00
28630;BME280;15817;42.130;24.762;2022-12-22T14:20:24;99958.81;;;4.49;96.69
28630;BME280;15817;42.130;24.762;2022-12-22T14:26:49;99959.66;;;4.46;97.44
28630;BME280;15817;42.130;24.762;2022-12-22T14:30:40;99963.25;;;4.50;98.19
28630;BME280;15817;42.130;24.762;2022-12-22T14:50:26;99954.66;;;4.18;100.00
28630;BME280;15817;42.130;24.762;2022-12-22T15:01:16;99969.41;;;4.10;100.00
28630;BME280;15817;42.130;24.762;2022-12-22T15:25:14;99978.66;;;3.92;100.00
28630;BME280;15817;42.130;24.762;2022-12-22T15:43:07;99975.19;;;3.93;100.00
28630;BME280;15817;42.130;24.762;2022-12-22T16:22:36;99983.25;;;3.62;100.00
28630;BME280;15817;42.130;24.762;2022-12-22T16:26:02;100000.00;;;3.66;100.00
28630;BME280;15817;42.130;24.762;2022-12-22T16:28:35;99994.56;;;3.59;100.00
28630;BME280;15817;42.130;24.762;2022-12-22T16:36:02;100009.44;;;3.57;100.00
28630;BME280;15817;42.130;24.762;2022-12-22T16:39:32;99996.09;;;3.50;100.00
28630;BME280;15817;42.130;24.762;2022-12-22T16:50:27;100008.44;;;3.52;100.00
28630;BME280;15817;42.130;24.762;2022-12-22T17:27:30;100031.75;;;3.39;100.00
28630;BME280;15817;42.130;24.762;2022-12-22T17:30:41;100016.72;;;3.33;100.00
28630;BME280;15817;42.130;24.762;2022-12-22T17:33:19;100004.34;;;3.29;100.00
28630;BME280;15817;42.130;24.762;2022-12-22T17:35:50;100008.75;;;3.30;100.00
28630;BME280;15817;42.130;24.762;2022-12-22T17:38:41;100013.97;;;3.28;100.00
28630;BME280;15817;42.130;24.762;2022-12-22T17:41:13;100029.81;;;3.32;100.00
28630;BME280;15817;42.130;24.762;2022-12-22T17:43:45;100015.63;;;3.25;100.00
28630;BME280;15817;42.130;24.762;2022-12-22T18:07:52;100009.16;;;3.12;100.00
28630;BME280;15817;42.130;24.762;2022-12-22T18:10:34;100018.94;;;3.18;100.00
28630;BME280;15817;42.130;24.762;2022-12-22T18:13:21;100006.53;;;3.11;100.00
28630;BME280;15817;42.130;24.762;2022-12-22T18:16:12;100010.88;;;3.10;100.00
28630;BME280;15817;42.130;24.762;2022-12-22T18:18:59;100005.59;;;3.09;100.00
28630;BME280;15817;42.130;24.762;2022-12-22T18:21:41;100012.66;;;3.11;100.00
28630;BME280;15817;42.130;24.762;2022-12-22T18:28:17;100008.91;;;3.03;100.00
28630;BME280;15817;42.130;24.762;2022-12-22T18:30:56;100014.19;;;3.03;100.00
28630;BME280;15817;42.130;24.762;2022-12-22T18:33:35;100023.09;;;3.08;100.00
28630;BME280;15817;42.130;24.762;2022-12-22T18:38:55;100015.97;;;3.04;100.00
28630;BME280;15817;42.130;24.762;2022-12-22T18:41:55;100013.25;;;3.01;100.00
28630;BME280;15817;42.130;24.762;2022-12-22T18:48:28;100034.31;;;3.03;100.00
28630;BME280;15817;42.130;24.762;2022-12-22T18:54:43;100040.44;;;3.03;100.00
28630;BME280;15817;42.130;24.762;2022-12-22T19:00:16;100026.06;;;2.89;100.00
28630;BME280;15817;42.130;24.762;2022-12-22T19:02:58;100033.19;;;2.93;100.00
28630;BME280;15817;42.130;24.762;2022-12-22T19:05:36;100028.66;;;2.87;100.00
28630;BME280;15817;42.130;24.762;2022-12-22T19:08:21;100020.78;;;2.87;100.00
28630;BME280;15817;42.130;24.762;2022-12-22T19:11:12;100035.59;;;2.85;100.00
28630;BME280;15817;42.130;24.762;2022-12-22T19:14:31;100038.28;;;2.87;100.00
28630;BME280;15817;42.130;24.762;2022-12-22T19:17:57;100050.66;;;2.92;100.00
28630;BME280;15817;42.130;24.762;2022-12-22T19:21:16;100027.72;;;2.85;100.00
28630;BME280;15817;42.130;24.762;2022-12-22T19:24:13;100023.28;;;2.83;100.00
28630;BME280;15817;42.130;24.762;2022-12-22T19:26:56;100018.03;;;2.83;100.00
28630;BME280;15817;42.130;24.762;2022-12-22T19:29:38;100021.41;;;2.79;100.00
28630;BME280;15817;42.130;24.762;2022-12-22T19:32:40;100010.78;;;2.74;100.00
28630;BME280;15817;42.130;24.762;2022-12-22T19:35:19;100011.69;;;2.75;100.00
28630;BME280;15817;42.130;24.762;2022-12-22T19:38:47;100004.59;;;2.72;100.00
28630;BME280;15817;42.130;24.762;2022-12-22T19:41:50;100017.88;;;2.78;100.00
28630;BME280;15817;42.130;24.762;2022-12-22T19:45:15;99999.22;;;2.68;100.00
28630;BME280;15817;42.130;24.762;2022-12-22T19:47:46;100003.53;;;2.66;100.00
28630;BME280;15817;42.130;24.762;2022-12-22T19:50:32;100011.50;;;2.69;100.00
28630;BME280;15817;42.130;24.762;2022-12-22T19:53:10;100012.53;;;2.74;100.00
28630;BME280;15817;42.130;24.762;2022-12-22T19:56:29;100010.53;;;2.65;100.00
28630;BME280;15817;42.130;24.762;2022-12-22T20:06:53;100026.41;;;2.70;100.00
28630;BME280;15817;42.130;24.762;2022-12-22T20:10:27;100012.28;;;2.66;100.00
28630;BME280;15817;42.130;24.762;2022-12-22T20:13:53;100021.19;;;2.71;100.00
28630;BME280;15817;42.130;24.762;2022-12-22T20:16:55;100006.00;;;2.60;100.00
28630;BME280;15817;42.130;24.762;2022-12-22T20:19:40;100003.16;;;2.52;100.00
28630;BME280;15817;42.130;24.762;2022-12-22T20:22:36;100024.22;;;2.53;100.00
28630;BME280;15817;42.130;24.762;2022-12-22T20:25:24;100002.88;;;2.43;100.00
28630;BME280;15817;42.130;24.762;2022-12-22T20:28:11;100011.53;;;2.39;100.00
28630;BME280;15817;42.130;24.762;2022-12-22T20:31:20;100010.63;;;2.38;100.00
28630;BME280;15817;42.130;24.762;2022-12-22T20:33:55;100023.84;;;2.41;100.00
28630;BME280;15817;42.130;24.762;2022-12-22T20:36:35;100029.28;;;2.47;100.00
28630;BME280;15817;42.130;24.762;2022-12-22T20:42:33;100013.06;;;2.32;100.00
28630;BME280;15817;42.130;24.762;2022-12-22T20:45:21;100027.13;;;2.34;100.00